sensor_id;sensor_type;location;lat;lon;timestamp;temperature;humidity
11838;DHT22;5978;51.020;6.764;2023-04-01T00:00:29;10.10;99.90
11838;DHT22;5978;51.020;6.764;2023-04-01T00:02:54;10.10;99.90
11838;DHT22;5978;51.020;6.764;2023-04-01T00:05:20;10.10;99.90
11838;DHT22;5978;51.020;6.764;2023-04-01T00:07:46;10.10;99.90
11838;DHT22;5978;51.020;6.764;2023-04-01T00:10:14;10.20;99.90
11838;DHT22;5978;51.020;6.764;2023-04-01T00:12:41;10.20;99.90
11838;DHT22;5978;51.020;6.764;2023-04-01T00:15:09;10.20;99.90
11838;DHT22;5978;51.020;6.764;2023-04-01T00:17:35;10.20;99.90
11838;DHT22;5978;51.020;6.764;2023-04-01T00:20:01;10.20;99.90
11838;DHT22;5978;51.020;6.764;2023-04-01T00:22:28;10.20;99.90
11838;DHT22;5978;51.020;6.764;2023-04-01T00:24:53;10.20;99.90
11838;DHT22;5978;51.020;6.764;2023-04-01T00:27:22;10.20;99.90
11838;DHT22;5978;51.020;6.764;2023-04-01T00:29:47;10.20;99.90
11838;DHT22;5978;51.020;6.764;2023-04-01T00:32:14;10.20;99.90
11838;DHT22;5978;51.020;6.764;2023-04-01T00:34:40;10.20;99.90
11838;DHT22;5978;51.020;6.764;2023-04-01T00:37:07;10.20;99.90
11838;DHT22;5978;51.020;6.764;2023-04-01T00:39:33;10.20;99.90
11838;DHT22;5978;51.020;6.764;2023-04-01T00:42:00;10.20;99.90
11838;DHT22;5978;51.020;6.764;2023-04-01T00:44:31;10.20;99.90
11838;DHT22;5978;51.020;6.764;2023-04-01T00:47:01;10.20;99.90
11838;DHT22;5978;51.020;6.764;2023-04-01T00:49:48;10.20;99.90
11838;DHT22;5978;51.020;6.764;2023-04-01T00:52:18;10.20;99.90
11838;DHT22;5978;51.020;6.764;2023-04-01T00:54:47;10.20;99.90
11838;DHT22;5978;51.020;6.764;2023-04-01T00:57:29;10.20;99.90
11838;DHT22;5978;51.020;6.764;2023-04-01T00:59:56;10.20;99.90
11838;DHT22;5978;51.020;6.764;2023-04-01T01:02:22;10.20;99.90
11838;DHT22;5978;51.020;6.764;2023-04-01T01:04:48;10.10;99.90
11838;DHT22;5978;51.020;6.764;2023-04-01T01:07:38;10.10;99.90
11838;DHT22;5978;51.020;6.764;2023-04-01T01:10:13;10.10;99.90
11838;DHT22;5978;51.020;6.764;2023-04-01T01:15:43;10.10;99.90
11838;DHT22;5978;51.020;6.764;2023-04-01T01:18:33;10.10;99.90
11838;DHT22;5978;51.020;6.764;2023-04-01T01:21:16;10.10;99.90
11838;DHT22;5978;51.020;6.764;2023-04-01T01:24:00;10.00;99.90
11838;DHT22;5978;51.020;6.764;2023-04-01T01:32:00;10.00;99.90
11838;DHT22;5978;51.020;6.764;2023-04-01T01:34:40;10.00;99.90
11838;DHT22;5978;51.020;6.764;2023-04-01T01:37:16;10.00;99.90
11838;DHT22;5978;51.020;6.764;2023-04-01T01:39:45;10.00;99.90
11838;DHT22;5978;51.020;6.764;2023-04-01T01:42:15;9.90;99.90
11838;DHT22;5978;51.020;6.764;2023-04-01T01:44:43;9.90;99.90
11838;DHT22;5978;51.020;6.764;2023-04-01T01:47:09;9.90;99.90
11838;DHT22;5978;51.020;6.764;2023-04-01T01:49:36;9.80;99.90
11838;DHT22;5978;51.020;6.764;2023-04-01T01:52:04;9.80;99.90
11838;DHT22;5978;51.020;6.764;2023-04-01T01:54:30;9.80;99.90
11838;DHT22;5978;51.020;6.764;2023-04-01T01:57:04;9.70;99.90
11838;DHT22;5978;51.020;6.764;2023-04-01T01:59:31;9.70;99.90
11838;DHT22;5978;51.020;6.764;2023-04-01T02:01:58;9.70;99.90
11838;DHT22;5978;51.020;6.764;2023-04-01T02:04:25;9.60;99.90
11838;DHT22;5978;51.020;6.764;2023-04-01T02:07:02;9.60;99.90
11838;DHT22;5978;51.020;6.764;2023-04-01T02:09:29;9.60;99.90
11838;DHT22;5978;51.020;6.764;2023-04-01T02:11:57;9.60;99.90
11838;DHT22;5978;51.020;6.764;2023-04-01T02:14:28;9.50;99.90
11838;DHT22;5978;51.020;6.764;2023-04-01T02:17:02;9.50;99.90
11838;DHT22;5978;51.020;6.764;2023-04-01T02:19:34;9.50;99.90
11838;DHT22;5978;51.020;6.764;2023-04-01T02:22:03;9.50;99.90
11838;DHT22;5978;51.020;6.764;2023-04-01T02:24:31;9.50;99.90
11838;DHT22;5978;51.020;6.764;2023-04-01T02:26:58;9.50;99.90
11838;DHT22;5978;51.020;6.764;2023-04-01T02:29:25;9.40;99.90
11838;DHT22;5978;51.020;6.764;2023-04-01T02:31:52;9.40;99.90
11838;DHT22;5978;51.020;6.764;2023-04-01T02:34:19;9.40;99.90
11838;DHT22;5978;51.020;6.764;2023-04-01T02:36:45;9.40;99.90
11838;DHT22;5978;51.020;6.764;2023-04-01T02:39:13;9.40;99.90
11838;DHT22;5978;51.020;6.764;2023-04-01T02:41:40;9.40;99.90
11838;DHT22;5978;51.020;6.764;2023-04-01T02:44:06;9.40;99.90
11838;DHT22;5978;51.020;6.764;2023-04-01T02:46:32;9.40;99.90
11838;DHT22;5978;51.020;6.764;2023-04-01T02:48:58;9.40;99.90
11838;DHT22;5978;51.020;6.764;2023-04-01T02:51:25;9.40;99.90
11838;DHT22;5978;51.020;6.764;2023-04-01T02:53:50;9.40;99.90
11838;DHT22;5978;51.020;6.764;2023-04-01T02:56:16;9.40;99.90
11838;DHT22;5978;51.020;6.764;2023-04-01T02:58:41;9.50;99.90
11838;DHT22;5978;51.020;6.764;2023-04-01T03:01:07;9.50;99.90
11838;DHT22;5978;51.020;6.764;2023-04-01T03:03:33;9.50;99.90
11838;DHT22;5978;51.020;6.764;2023-04-01T03:06:08;9.50;99.90
11838;DHT22;5978;51.020;6.764;2023-04-01T03:08:34;9.50;99.90
11838;DHT22;5978;51.020;6.764;2023-04-01T03:11:00;9.50;99.90
11838;DHT22;5978;51.020;6.764;2023-04-01T03:13:25;9.50;99.90
11838;DHT22;5978;51.020;6.764;2023-04-01T03:15:51;9.60;99.90
11838;DHT22;5978;51.020;6.764;2023-04-01T03:18:17;9.50;99.90
11838;DHT22;5978;51.020;6.764;2023-04-01T03:20:42;9.60;99.90
11838;DHT22;5978;51.020;6.764;2023-04-01T03:23:08;9.60;99.90
11838;DHT22;5978;51.020;6.764;2023-04-01T03:25:34;9.60;99.90
11838;DHT22;5978;51.020;6.764;2023-04-01T03:28:00;9.60;99.90
11838;DHT22;5978;51.020;6.764;2023-04-01T03:30:26;9.60;99.90
11838;DHT22;5978;51.020;6.764;2023-04-01T03:32:52;9.60;99.90
11838;DHT22;5978;51.020;6.764;2023-04-01T03:35:18;9.60;99.90
11838;DHT22;5978;51.020;6.764;2023-04-01T03:37:43;9.60;99.90
11838;DHT22;5978;51.020;6.764;2023-04-01T03:40:09;9.50;99.90
11838;DHT22;5978;51.020;6.764;2023-04-01T03:42:35;9.50;99.90
11838;DHT22;5978;51.020;6.764;2023-04-01T03:45:01;9.50;99.90
11838;DHT22;5978;51.020;6.764;2023-04-01T03:47:28;9.50;99.90
11838;DHT22;5978;51.020;6.764;2023-04-01T03:49:53;9.50;99.90
11838;DHT22;5978;51.020;6.764;2023-04-01T03:52:19;9.50;99.90
11838;DHT22;5978;51.020;6.764;2023-04-01T03:54:45;9.50;99.90
11838;DHT22;5978;51.020;6.764;2023-04-01T03:57:10;9.40;99.90
11838;DHT22;5978;51.020;6.764;2023-04-01T03:59:36;9.40;99.90
11838;DHT22;5978;51.020;6.764;2023-04-01T04:02:02;9.40;99.90
11838;DHT22;5978;51.020;6.764;2023-04-01T04:04:27;9.40;99.90
11838;DHT22;5978;51.020;6.764;2023-04-01T04:06:53;9.40;99.90
11838;DHT22;5978;51.020;6.764;2023-04-01T04:09:19;9.40;99.90
11838;DHT22;5978;51.020;6.764;2023-04-01T04:11:45;9.40;99.90
11838;DHT22;5978;51.020;6.764;2023-04-01T04:14:10;9.40;99.90
11838;DHT22;5978;51.020;6.764;2023-04-01T04:16:36;9.40;99.90
11838;DHT22;5978;51.020;6.764;2023-04-01T04:19:02;9.40;99.90
11838;DHT22;5978;51.020;6.764;2023-04-01T04:21:28;9.40;99.90
11838;DHT22;5978;51.020;6.764;2023-04-01T04:23:54;9.50;99.90
11838;DHT22;5978;51.020;6.764;2023-04-01T04:26:19;9.40;99.90
11838;DHT22;5978;51.020;6.764;2023-04-01T04:28:45;9.40;99.90
11838;DHT22;5978;51.020;6.764;2023-04-01T04:31:11;9.40;99.90
11838;DHT22;5978;51.020;6.764;2023-04-01T04:33:36;9.40;99.90
11838;DHT22;5978;51.020;6.764;2023-04-01T04:36:03;9.40;99.90
11838;DHT22;5978;51.020;6.764;2023-04-01T04:38:29;9.40;99.90
11838;DHT22;5978;51.020;6.764;2023-04-01T04:40:55;9.40;99.90
11838;DHT22;5978;51.020;6.764;2023-04-01T04:43:21;9.40;99.90
11838;DHT22;5978;51.020;6.764;2023-04-01T04:45:47;9.40;99.90
11838;DHT22;5978;51.020;6.764;2023-04-01T04:48:14;9.40;99.90
11838;DHT22;5978;51.020;6.764;2023-04-01T04:50:45;9.40;99.90
11838;DHT22;5978;51.020;6.764;2023-04-01T04:53:11;9.40;99.90
11838;DHT22;5978;51.020;6.764;2023-04-01T04:55:37;9.40;99.90
11838;DHT22;5978;51.020;6.764;2023-04-01T04:58:03;9.40;99.90
11838;DHT22;5978;51.020;6.764;2023-04-01T05:00:28;9.40;99.90
11838;DHT22;5978;51.020;6.764;2023-04-01T05:02:54;9.40;99.90
11838;DHT22;5978;51.020;6.764;2023-04-01T05:05:20;9.40;99.90
11838;DHT22;5978;51.020;6.764;2023-04-01T05:07:45;9.50;99.90
11838;DHT22;5978;51.020;6.764;2023-04-01T05:10:11;9.50;99.90
11838;DHT22;5978;51.020;6.764;2023-04-01T05:12:36;9.50;99.90
11838;DHT22;5978;51.020;6.764;2023-04-01T05:15:05;9.50;99.90
11838;DHT22;5978;51.020;6.764;2023-04-01T05:17:31;9.50;99.90
11838;DHT22;5978;51.020;6.764;2023-04-01T05:19:57;9.50;99.90
11838;DHT22;5978;51.020;6.764;2023-04-01T05:22:25;9.50;99.90
11838;DHT22;5978;51.020;6.764;2023-04-01T05:24:51;9.50;99.90
11838;DHT22;5978;51.020;6.764;2023-04-01T05:27:17;9.50;99.90
11838;DHT22;5978;51.020;6.764;2023-04-01T05:29:42;9.50;99.90
11838;DHT22;5978;51.020;6.764;2023-04-01T05:32:08;9.40;99.90
11838;DHT22;5978;51.020;6.764;2023-04-01T05:34:34;9.50;99.90
11838;DHT22;5978;51.020;6.764;2023-04-01T05:36:59;9.50;99.90
11838;DHT22;5978;51.020;6.764;2023-04-01T05:39:25;9.50;99.90
11838;DHT22;5978;51.020;6.764;2023-04-01T05:41:51;9.50;99.90
11838;DHT22;5978;51.020;6.764;2023-04-01T05:44:16;9.50;99.90
11838;DHT22;5978;51.020;6.764;2023-04-01T05:46:42;9.50;99.90
11838;DHT22;5978;51.020;6.764;2023-04-01T05:49:08;9.50;99.90
11838;DHT22;5978;51.020;6.764;2023-04-01T05:51:33;9.50;99.90
11838;DHT22;5978;51.020;6.764;2023-04-01T05:53:59;9.50;99.90
11838;DHT22;5978;51.020;6.764;2023-04-01T05:56:24;9.50;99.90
11838;DHT22;5978;51.020;6.764;2023-04-01T05:58:52;9.50;99.90
11838;DHT22;5978;51.020;6.764;2023-04-01T06:01:18;9.50;99.90
11838;DHT22;5978;51.020;6.764;2023-04-01T06:03:44;9.60;99.90
11838;DHT22;5978;51.020;6.764;2023-04-01T06:06:15;9.60;99.90
11838;DHT22;5978;51.020;6.764;2023-04-01T06:08:42;9.60;99.90
11838;DHT22;5978;51.020;6.764;2023-04-01T06:11:19;9.60;99.90
11838;DHT22;5978;51.020;6.764;2023-04-01T06:19:57;9.60;99.90
11838;DHT22;5978;51.020;6.764;2023-04-01T06:25:42;9.70;99.90
11838;DHT22;5978;51.020;6.764;2023-04-01T06:42:59;9.70;99.90
11838;DHT22;5978;51.020;6.764;2023-04-01T06:48:39;9.80;99.90
11838;DHT22;5978;51.020;6.764;2023-04-01T06:54:31;9.90;99.90
11838;DHT22;5978;51.020;6.764;2023-04-01T06:57:05;9.80;99.90
11838;DHT22;5978;51.020;6.764;2023-04-01T06:59:35;9.80;99.90
11838;DHT22;5978;51.020;6.764;2023-04-01T07:02:50;9.80;99.90
11838;DHT22;5978;51.020;6.764;2023-04-01T07:05:22;9.80;99.90
11838;DHT22;5978;51.020;6.764;2023-04-01T07:07:51;9.80;99.90
11838;DHT22;5978;51.020;6.764;2023-04-01T07:12:58;9.80;99.90
11838;DHT22;5978;51.020;6.764;2023-04-01T07:15:36;9.80;99.90
11838;DHT22;5978;51.020;6.764;2023-04-01T07:18:12;9.80;99.90
11838;DHT22;5978;51.020;6.764;2023-04-01T07:20:39;9.80;99.90
11838;DHT22;5978;51.020;6.764;2023-04-01T07:23:13;9.80;99.90
11838;DHT22;5978;51.020;6.764;2023-04-01T07:25:44;9.80;99.90
11838;DHT22;5978;51.020;6.764;2023-04-01T07:28:13;9.80;99.90
11838;DHT22;5978;51.020;6.764;2023-04-01T07:36:13;9.80;99.90
11838;DHT22;5978;51.020;6.764;2023-04-01T07:39:25;9.70;99.90
11838;DHT22;5978;51.020;6.764;2023-04-01T07:42:15;9.80;99.90
11838;DHT22;5978;51.020;6.764;2023-04-01T07:53:10;9.80;99.90
11838;DHT22;5978;51.020;6.764;2023-04-01T07:58:51;9.80;99.90
11838;DHT22;5978;51.020;6.764;2023-04-01T08:06:41;9.80;99.90
11838;DHT22;5978;51.020;6.764;2023-04-01T08:09:33;9.80;99.90
11838;DHT22;5978;51.020;6.764;2023-04-01T08:18:12;10.00;99.90
11838;DHT22;5978;51.020;6.764;2023-04-01T08:20:56;10.00;99.90
11838;DHT22;5978;51.020;6.764;2023-04-01T08:28:44;10.10;99.90
11838;DHT22;5978;51.020;6.764;2023-04-01T08:31:47;10.20;99.90
11838;DHT22;5978;51.020;6.764;2023-04-01T08:34:19;10.20;99.90
11838;DHT22;5978;51.020;6.764;2023-04-01T08:48:59;10.30;99.90
11838;DHT22;5978;51.020;6.764;2023-04-01T08:57:31;10.40;99.90
11838;DHT22;5978;51.020;6.764;2023-04-01T09:03:24;10.30;99.90
11838;DHT22;5978;51.020;6.764;2023-04-01T09:06:49;10.30;99.90
11838;DHT22;5978;51.020;6.764;2023-04-01T09:14:37;10.20;99.90
11838;DHT22;5978;51.020;6.764;2023-04-01T09:25:50;10.40;99.90
11838;DHT22;5978;51.020;6.764;2023-04-01T09:28:25;10.60;99.90
11838;DHT22;5978;51.020;6.764;2023-04-01T09:39:03;10.50;99.90
11838;DHT22;5978;51.020;6.764;2023-04-01T09:47:20;10.60;99.90
11838;DHT22;5978;51.020;6.764;2023-04-01T10:17:48;10.60;99.90
11838;DHT22;5978;51.020;6.764;2023-04-01T10:36:48;11.00;99.90
11838;DHT22;5978;51.020;6.764;2023-04-01T10:43:11;11.00;99.90
11838;DHT22;5978;51.020;6.764;2023-04-01T11:12:40;11.40;99.90
11838;DHT22;5978;51.020;6.764;2023-04-01T11:32:52;12.10;99.90
11838;DHT22;5978;51.020;6.764;2023-04-01T11:35:38;12.30;99.90
11838;DHT22;5978;51.020;6.764;2023-04-01T11:41:25;12.40;99.90
11838;DHT22;5978;51.020;6.764;2023-04-01T11:44:24;12.30;99.90
11838;DHT22;5978;51.020;6.764;2023-04-01T11:57:57;12.60;99.90
11838;DHT22;5978;51.020;6.764;2023-04-01T12:12:20;13.20;99.90
11838;DHT22;5978;51.020;6.764;2023-04-01T12:15:00;13.00;99.90
11838;DHT22;5978;51.020;6.764;2023-04-01T12:17:46;13.00;99.90
11838;DHT22;5978;51.020;6.764;2023-04-01T12:20:36;13.10;99.90
11838;DHT22;5978;51.020;6.764;2023-04-01T12:23:10;13.00;99.90
11838;DHT22;5978;51.020;6.764;2023-04-01T12:28:54;13.30;99.90
11838;DHT22;5978;51.020;6.764;2023-04-01T12:40:17;13.30;99.90
11838;DHT22;5978;51.020;6.764;2023-04-01T12:45:41;13.20;99.90
11838;DHT22;5978;51.020;6.764;2023-04-01T12:56:03;12.90;99.90
11838;DHT22;5978;51.020;6.764;2023-04-01T13:15:13;13.10;99.90
11838;DHT22;5978;51.020;6.764;2023-04-01T13:29:07;12.10;99.90
11838;DHT22;5978;51.020;6.764;2023-04-01T13:32:18;12.00;99.90
11838;DHT22;5978;51.020;6.764;2023-04-01T13:40:26;11.90;99.90
11838;DHT22;5978;51.020;6.764;2023-04-01T13:48:56;11.60;99.90
11838;DHT22;5978;51.020;6.764;2023-04-01T13:51:42;11.50;99.90
11838;DHT22;5978;51.020;6.764;2023-04-01T13:54:36;11.60;99.90
11838;DHT22;5978;51.020;6.764;2023-04-01T14:00:41;11.70;99.90
11838;DHT22;5978;51.020;6.764;2023-04-01T14:06:02;11.60;99.90
11838;DHT22;5978;51.020;6.764;2023-04-01T14:14:20;11.60;99.90
11838;DHT22;5978;51.020;6.764;2023-04-01T14:16:55;11.60;99.90
11838;DHT22;5978;51.020;6.764;2023-04-01T14:34:09;11.60;99.90
11838;DHT22;5978;51.020;6.764;2023-04-01T14:37:07;11.40;99.90
11838;DHT22;5978;51.020;6.764;2023-04-01T14:39:49;11.40;99.90
11838;DHT22;5978;51.020;6.764;2023-04-01T14:45:32;11.30;99.90
11838;DHT22;5978;51.020;6.764;2023-04-01T14:48:25;11.30;99.90
11838;DHT22;5978;51.020;6.764;2023-04-01T14:50:57;11.40;99.90
11838;DHT22;5978;51.020;6.764;2023-04-01T14:53:31;11.50;99.90
11838;DHT22;5978;51.020;6.764;2023-04-01T14:56:00;11.50;99.90
11838;DHT22;5978;51.020;6.764;2023-04-01T14:58:52;11.60;99.90
11838;DHT22;5978;51.020;6.764;2023-04-01T15:01:45;11.80;99.90
11838;DHT22;5978;51.020;6.764;2023-04-01T15:04:33;11.90;99.90
11838;DHT22;5978;51.020;6.764;2023-04-01T15:27:09;11.90;99.90
11838;DHT22;5978;51.020;6.764;2023-04-01T15:45:51;11.50;99.90
11838;DHT22;5978;51.020;6.764;2023-04-01T15:51:01;11.50;99.90
11838;DHT22;5978;51.020;6.764;2023-04-01T15:56:26;11.40;99.90
11838;DHT22;5978;51.020;6.764;2023-04-01T15:59:01;11.50;99.90
11838;DHT22;5978;51.020;6.764;2023-04-01T16:01:50;11.50;99.90
11838;DHT22;5978;51.020;6.764;2023-04-01T16:04:41;11.70;99.90
11838;DHT22;5978;51.020;6.764;2023-04-01T16:13:04;11.90;99.90
11838;DHT22;5978;51.020;6.764;2023-04-01T16:19:09;11.90;99.90
11838;DHT22;5978;51.020;6.764;2023-04-01T16:21:51;11.80;99.90
11838;DHT22;5978;51.020;6.764;2023-04-01T16:24:39;11.70;99.90
11838;DHT22;5978;51.020;6.764;2023-04-01T16:32:18;11.40;99.90
11838;DHT22;5978;51.020;6.764;2023-04-01T16:37:47;11.20;99.90
11838;DHT22;5978;51.020;6.764;2023-04-01T16:43:19;11.10;99.90
11838;DHT22;5978;51.020;6.764;2023-04-01T16:54:59;10.90;99.90
11838;DHT22;5978;51.020;6.764;2023-04-01T17:02:37;10.90;99.90
11838;DHT22;5978;51.020;6.764;2023-04-01T17:05:11;11.00;99.90
11838;DHT22;5978;51.020;6.764;2023-04-01T17:18:25;10.70;99.90
11838;DHT22;5978;51.020;6.764;2023-04-01T17:21:04;10.70;99.90
11838;DHT22;5978;51.020;6.764;2023-04-01T17:23:58;10.60;99.90
11838;DHT22;5978;51.020;6.764;2023-04-01T17:37:12;10.70;99.90
11838;DHT22;5978;51.020;6.764;2023-04-01T17:42:40;10.60;99.90
11838;DHT22;5978;51.020;6.764;2023-04-01T17:53:57;10.30;99.90
11838;DHT22;5978;51.020;6.764;2023-04-01T18:20:54;10.10;99.90
11838;DHT22;5978;51.020;6.764;2023-04-01T18:23:51;10.10;99.90
11838;DHT22;5978;51.020;6.764;2023-04-01T18:26:41;10.10;99.90
11838;DHT22;5978;51.020;6.764;2023-04-01T18:31:51;10.00;99.90
11838;DHT22;5978;51.020;6.764;2023-04-01T18:34:50;10.00;99.90
11838;DHT22;5978;51.020;6.764;2023-04-01T18:37:55;10.00;99.90
11838;DHT22;5978;51.020;6.764;2023-04-01T18:43:08;10.00;99.90
11838;DHT22;5978;51.020;6.764;2023-04-01T18:45:40;10.00;99.90
11838;DHT22;5978;51.020;6.764;2023-04-01T18:50:55;9.90;99.90
11838;DHT22;5978;51.020;6.764;2023-04-01T18:53:30;10.00;99.90
11838;DHT22;5978;51.020;6.764;2023-04-01T18:56:01;10.00;99.90
11838;DHT22;5978;51.020;6.764;2023-04-01T18:58:34;10.10;99.90
11838;DHT22;5978;51.020;6.764;2023-04-01T19:01:23;10.00;99.90
11838;DHT22;5978;51.020;6.764;2023-04-01T19:06:33;10.00;99.90
11838;DHT22;5978;51.020;6.764;2023-04-01T19:09:17;10.00;99.90
11838;DHT22;5978;51.020;6.764;2023-04-01T19:19:58;9.90;99.90
11838;DHT22;5978;51.020;6.764;2023-04-01T19:28:20;9.90;99.90
11838;DHT22;5978;51.020;6.764;2023-04-01T19:30:53;9.90;99.90
11838;DHT22;5978;51.020;6.764;2023-04-01T19:33:41;9.90;99.90
11838;DHT22;5978;51.020;6.764;2023-04-01T19:41:50;9.80;99.90
11838;DHT22;5978;51.020;6.764;2023-04-01T19:47:02;9.80;99.90
11838;DHT22;5978;51.020;6.764;2023-04-01T19:52:23;9.80;99.90
11838;DHT22;5978;51.020;6.764;2023-04-01T20:02:44;9.80;99.90
11838;DHT22;5978;51.020;6.764;2023-04-01T20:05:22;9.80;99.90
11838;DHT22;5978;51.020;6.764;2023-04-01T20:07:52;9.70;99.90
11838;DHT22;5978;51.020;6.764;2023-04-01T20:10:47;9.70;99.90
11838;DHT22;5978;51.020;6.764;2023-04-01T20:13:33;9.70;99.90
11838;DHT22;5978;51.020;6.764;2023-04-01T20:16:04;9.70;99.90
11838;DHT22;5978;51.020;6.764;2023-04-01T20:21:31;9.70;99.90
11838;DHT22;5978;51.020;6.764;2023-04-01T20:24:35;9.70;99.90
11838;DHT22;5978;51.020;6.764;2023-04-01T20:40:44;9.60;99.90
11838;DHT22;5978;51.020;6.764;2023-04-01T20:44:08;9.60;99.90
11838;DHT22;5978;51.020;6.764;2023-04-01T20:46:20;9.60;99.90
11838;DHT22;5978;51.020;6.764;2023-04-01T20:51:42;9.60;99.90
11838;DHT22;5978;51.020;6.764;2023-04-01T20:57:16;9.60;99.90
11838;DHT22;5978;51.020;6.764;2023-04-01T21:00:16;9.60;99.90
11838;DHT22;5978;51.020;6.764;2023-04-01T21:03:06;9.50;99.90
11838;DHT22;5978;51.020;6.764;2023-04-01T21:05:49;9.50;99.90
11838;DHT22;5978;51.020;6.764;2023-04-01T21:08:52;9.50;99.90
11838;DHT22;5978;51.020;6.764;2023-04-01T21:17:08;9.50;99.90
11838;DHT22;5978;51.020;6.764;2023-04-01T21:22:24;9.50;99.90
11838;DHT22;5978;51.020;6.764;2023-04-01T21:25:31;9.60;99.90
11838;DHT22;5978;51.020;6.764;2023-04-01T21:28:03;9.50;99.90
11838;DHT22;5978;51.020;6.764;2023-04-01T21:33:47;9.50;99.90
11838;DHT22;5978;51.020;6.764;2023-04-01T21:39:24;9.60;99.90
11838;DHT22;5978;51.020;6.764;2023-04-01T21:44:33;9.60;99.90
11838;DHT22;5978;51.020;6.764;2023-04-01T22:07:18;10.00;99.90
11838;DHT22;5978;51.020;6.764;2023-04-01T22:09:59;10.00;99.90
11838;DHT22;5978;51.020;6.764;2023-04-01T22:12:30;10.00;99.90
11838;DHT22;5978;51.020;6.764;2023-04-01T22:20:33;10.00;99.90
11838;DHT22;5978;51.020;6.764;2023-04-01T22:23:20;9.80;99.90
11838;DHT22;5978;51.020;6.764;2023-04-01T22:26:16;9.80;99.90
11838;DHT22;5978;51.020;6.764;2023-04-01T22:31:58;9.70;99.90
11838;DHT22;5978;51.020;6.764;2023-04-01T22:36:54;9.70;99.90
11838;DHT22;5978;51.020;6.764;2023-04-01T22:39:45;9.70;99.90
11838;DHT22;5978;51.020;6.764;2023-04-01T22:42:32;9.70;99.90
11838;DHT22;5978;51.020;6.764;2023-04-01T22:48:11;9.60;99.90
11838;DHT22;5978;51.020;6.764;2023-04-01T22:51:02;9.50;99.90
11838;DHT22;5978;51.020;6.764;2023-04-01T22:56:40;9.40;99.90
11838;DHT22;5978;51.020;6.764;2023-04-01T22:59:35;9.40;99.90
11838;DHT22;5978;51.020;6.764;2023-04-01T23:02:13;9.40;99.90
11838;DHT22;5978;51.020;6.764;2023-04-01T23:04:43;9.40;99.90
11838;DHT22;5978;51.020;6.764;2023-04-01T23:07:33;9.30;99.90
11838;DHT22;5978;51.020;6.764;2023-04-01T23:10:04;9.30;99.90
11838;DHT22;5978;51.020;6.764;2023-04-01T23:12:32;9.30;99.90
11838;DHT22;5978;51.020;6.764;2023-04-01T23:15:00;9.40;99.90
11838;DHT22;5978;51.020;6.764;2023-04-01T23:23:17;9.30;99.90
11838;DHT22;5978;51.020;6.764;2023-04-01T23:28:55;9.30;99.90
11838;DHT22;5978;51.020;6.764;2023-04-01T23:34:01;9.30;99.90
11838;DHT22;5978;51.020;6.764;2023-04-01T23:36:28;9.20;99.90
11838;DHT22;5978;51.020;6.764;2023-04-01T23:38:55;9.20;99.90
11838;DHT22;5978;51.020;6.764;2023-04-01T23:41:31;9.10;99.90
11838;DHT22;5978;51.020;6.764;2023-04-01T23:44:09;9.10;99.90
11838;DHT22;5978;51.020;6.764;2023-04-01T23:46:37;9.10;99.90
11838;DHT22;5978;51.020;6.764;2023-04-01T23:49:03;9.00;99.90
11838;DHT22;5978;51.020;6.764;2023-04-01T23:51:46;9.00;99.90
11838;DHT22;5978;51.020;6.764;2023-04-01T23:54:18;9.00;99.90
11838;DHT22;5978;51.020;6.764;2023-04-01T23:56:53;8.90;99.90
11838;DHT22;5978;51.020;6.764;2023-04-01T23:59:28;8.90;99.90
